Terminal Aerodrome Forecast
Issued by NWS Lake Charles, LA

Home | Current Version | Previous Version | Text Only | Print | Product List | Glossary On
Versions: 1 2 3 4 5 6 7 8 9 10 11 12 13 14 15
000
FTUS44 KLCH 201700
TAFLFT
TAF
KLFT 201740Z 2018/2118 18005KT P6SM VCTS SCT035CB SCT060 SCT250
     FM202300 19003KT P6SM SCT250
     FM210900 16004KT P6SM BKN035 BKN200
     FM211400 19005KT P6SM SCT035 SCT180=

USA.gov is the U.S. government's official web portal to all federal, state and local government web resources and services.